Time;durP1;ratioP1;P1;durP2;ratioP2;P2;SDS_P1;SDS_P2;PMS_P1;PMS_P2;Temp;Humidity;BMP_temperature;BMP_pressure;BME280_temperature;BME280_humidity;BME280_pressure;Samples;Min_cycle;Max_cycle;Signal;HPM_P1;HPM_P2
2022/03/26 00:01:45;;;;;;;17.95;14.63;;;26.90;99.90;;;;;;4150853;28;20038;-69
2022/03/26 00:03:51;;;;;;;16.92;14.65;;;27.00;99.90;;;;;;4141637;28;20029;-70
2022/03/26 00:06:00;;;;;;;16.75;14.63;;;27.00;99.90;;;;;;4155200;28;20045;-69
2022/03/26 00:08:08;;;;;;;16.27;14.55;;;27.00;99.90;;;;;;4159065;28;20056;-69
2022/03/26 00:10:13;;;;;;;16.35;14.65;;;27.00;99.90;;;;;;4158807;28;20652;-69
2022/03/26 00:12:19;;;;;;;15.77;14.00;;;27.00;99.90;;;;;;4159326;28;20502;-68
2022/03/26 00:14:32;;;;;;;17.67;13.98;;;27.00;99.90;;;;;;4158950;28;20050;-69
2022/03/26 00:16:36;;;;;;;18.25;15.10;;;27.00;99.90;;;;;;4159159;28;20076;-70
2022/03/26 00:18:41;;;;;;;17.80;14.80;;;27.10;99.90;;;;;;4155338;28;20045;-68
2022/03/26 00:20:49;;;;;;;18.10;14.82;;;27.20;99.90;;;;;;4158818;28;20128;-67
2022/03/26 00:22:55;;;;;;;16.90;14.90;;;27.20;99.90;;;;;;4158914;28;20069;-69
2022/03/26 00:25:00;;;;;;;17.65;15.38;;;27.30;99.90;;;;;;4155623;28;20041;-69
2022/03/26 00:27:09;;;;;;;17.05;15.25;;;27.40;99.90;;;;;;4158453;28;20037;-69
2022/03/26 00:29:15;;;;;;;23.02;15.30;;;27.40;99.90;;;;;;4161011;28;20092;-68
2022/03/26 00:31:25;;;;;;;18.25;15.50;;;27.50;99.90;;;;;;4157898;28;20446;-68
2022/03/26 00:33:34;;;;;;;20.15;17.15;;;27.60;99.90;;;;;;4161154;28;20037;-68
2022/03/26 00:35:40;;;;;;;20.20;17.27;;;27.60;99.90;;;;;;4160839;28;20037;-69
2022/03/26 00:37:45;;;;;;;22.88;18.40;;;27.60;99.90;;;;;;4161354;28;20029;-69
2022/03/26 00:39:50;;;;;;;21.85;18.67;;;27.60;99.90;;;;;;4161022;28;20069;-69
2022/03/26 00:41:57;;;;;;;21.05;18.67;;;27.70;99.90;;;;;;4161119;28;20563;-67
2022/03/26 00:44:02;;;;;;;24.42;18.85;;;27.80;99.90;;;;;;4161063;28;20469;-68
2022/03/26 00:46:08;;;;;;;23.05;18.90;;;27.80;99.90;;;;;;4158323;28;20049;-68
2022/03/26 00:48:19;;;;;;;25.10;19.92;;;27.80;99.90;;;;;;4158695;28;20049;-67
2022/03/26 00:50:29;;;;;;;24.42;19.48;;;27.80;99.90;;;;;;4161021;28;20699;-68
2022/03/26 00:52:45;;;;;;;26.85;21.65;;;27.70;99.90;;;;;;4159287;28;20040;-68
2022/03/26 00:54:50;;;;;;;25.13;20.35;;;27.50;99.90;;;;;;4160180;28;20435;-68
2022/03/26 00:56:55;;;;;;;21.20;17.88;;;27.60;99.90;;;;;;4160604;28;20057;-68
2022/03/26 00:59:02;;;;;;;24.17;18.83;;;27.80;99.90;;;;;;4158987;28;20551;-68
2022/03/26 01:01:07;;;;;;;24.73;18.15;;;27.90;99.90;;;;;;4158559;28;20068;-69
2022/03/26 01:03:18;;;;;;;26.45;19.75;;;28.00;99.90;;;;;;4160393;28;20164;-68
2022/03/26 01:05:25;;;;;;;25.77;19.98;;;28.10;99.90;;;;;;4180568;28;20137;-68
2022/03/26 01:07:31;;;;;;;25.60;19.85;;;28.10;99.90;;;;;;4159448;28;20053;-68
2022/03/26 01:09:39;;;;;;;26.00;20.88;;;28.20;99.90;;;;;;4181286;28;20132;-68
2022/03/26 01:11:45;;;;;;;27.02;21.95;;;28.30;99.90;;;;;;4159704;28;20128;-69
2022/03/26 01:13:55;;;;;;;29.85;22.80;;;28.40;99.90;;;;;;4159054;28;20639;-69
2022/03/26 01:16:03;;;;;;;24.95;21.52;;;28.40;99.90;;;;;;4157671;28;20057;-69
2022/03/26 01:18:10;;;;;;;29.83;23.17;;;28.50;99.90;;;;;;4148529;28;20034;-68
2022/03/26 01:20:18;;;;;;;27.40;21.55;;;28.60;99.90;;;;;;4160086;28;20267;-69
2022/03/26 01:22:24;;;;;;;29.45;21.92;;;28.60;99.90;;;;;;4160413;28;20648;-68
2022/03/26 01:24:32;;;;;;;26.35;21.35;;;28.60;99.90;;;;;;4160698;28;20137;-69
2022/03/26 01:26:40;;;;;;;31.77;23.60;;;28.70;99.90;;;;;;4159427;28;20153;-69
2022/03/26 01:28:45;;;;;;;27.45;20.42;;;28.70;99.90;;;;;;4160902;28;20647;-68
2022/03/26 01:30:51;;;;;;;30.60;23.38;;;28.70;99.90;;;;;;4163195;28;20480;-68
2022/03/26 01:33:16;;;;;;;26.58;19.70;;;28.70;99.90;;;;;;4156737;28;20099;-68
2022/03/26 01:35:32;;;;;;;26.73;20.15;;;28.80;99.90;;;;;;4165200;28;20534;-68
2022/03/26 01:37:48;;;;;;;25.00;20.05;;;28.80;99.90;;;;;;4159741;28;20506;-67
2022/03/26 01:40:13;;;;;;;23.73;19.77;;;28.80;99.90;;;;;;4147150;28;20058;-68
2022/03/26 01:42:21;;;;;;;23.02;17.27;;;28.90;99.90;;;;;;4168325;28;20083;-68
2022/03/26 01:44:48;;;;;;;22.30;16.95;;;28.90;99.90;;;;;;4150684;28;20057;-68
2022/03/26 01:46:54;;;;;;;20.92;17.48;;;29.00;99.90;;;;;;4163942;28;20060;-68
2022/03/26 01:49:00;;;;;;;22.80;17.63;;;29.10;99.90;;;;;;4160634;28;20045;-68
2022/03/26 01:51:25;;;;;;;24.25;17.73;;;29.10;99.90;;;;;;4172394;28;20056;-69
2022/03/26 01:53:33;;;;;;;25.95;18.42;;;29.10;99.90;;;;;;4164894;28;20061;-68
2022/03/26 01:55:41;;;;;;;24.02;19.77;;;29.20;99.90;;;;;;4162905;28;20103;-68
2022/03/26 01:58:02;;;;;;;24.85;19.63;;;29.20;99.90;;;;;;4163361;28;20045;-67
2022/03/26 02:00:11;;;;;;;21.60;17.83;;;29.20;99.90;;;;;;4161210;28;20114;-68
2022/03/26 02:02:37;;;;;;;22.95;18.08;;;29.20;99.90;;;;;;4159638;28;20057;-68
2022/03/26 02:04:51;;;;;;;23.98;17.70;;;29.30;99.90;;;;;;4161449;28;20069;-69
2022/03/26 02:06:56;;;;;;;23.23;18.15;;;29.30;99.90;;;;;;4147893;28;20049;-68
2022/03/26 02:09:21;;;;;;;23.27;18.33;;;29.40;99.90;;;;;;4176722;28;20106;-68
2022/03/26 02:11:37;;;;;;;21.60;17.83;;;29.50;99.90;;;;;;4162941;28;20049;-69
2022/03/26 02:13:54;;;;;;;23.75;19.75;;;29.50;99.90;;;;;;4162077;28;20049;-68
2022/03/26 02:16:01;;;;;;;21.38;16.60;;;29.50;99.90;;;;;;4159751;28;20045;-69
2022/03/26 02:18:13;;;;;;;22.13;18.90;;;29.50;99.90;;;;;;4163401;28;20069;-68
2022/03/26 02:20:23;;;;;;;;;;;29.50;99.90;;;;;;4163528;28;20048;-68
2022/03/26 02:22:33;;;;;;;23.15;17.75;;;29.60;99.90;;;;;;4160311;28;19959;-68
2022/03/26 02:24:47;;;;;;;20.20;16.65;;;29.60;99.90;;;;;;4162740;28;20128;-68
2022/03/26 02:26:59;;;;;;;17.95;15.70;;;29.70;99.90;;;;;;4161624;28;20048;-68
2022/03/26 02:29:12;;;;;;;20.52;16.30;;;29.80;99.90;;;;;;4162062;28;20531;-68
2022/03/26 02:31:27;;;;;;;23.23;16.88;;;29.90;99.90;;;;;;4162508;28;20048;-67
2022/03/26 02:33:37;;;;;;;24.63;16.83;;;30.00;99.90;;;;;;4161815;28;20076;-68
2022/03/26 02:36:02;;;;;;;19.60;15.85;;;30.00;99.90;;;;;;4184064;28;20049;-68
2022/03/26 02:38:28;;;;;;;19.05;14.90;;;30.10;99.90;;;;;;4161631;28;20053;-68
2022/03/26 02:40:52;;;;;;;20.55;15.82;;;30.10;99.90;;;;;;4162066;28;20049;-68
2022/03/26 02:43:10;;;;;;;23.30;16.70;;;30.20;99.90;;;;;;4159400;28;20528;-68
2022/03/26 02:45:36;;;;;;;20.95;14.82;;;30.20;99.90;;;;;;4162040;28;20179;-69
2022/03/26 02:47:49;;;;;;;19.92;15.40;;;30.20;99.90;;;;;;4159067;28;20033;-68
2022/03/26 02:50:13;;;;;;;23.80;15.75;;;30.30;99.90;;;;;;4160098;28;20061;-68
2022/03/26 02:52:39;;;;;;;21.55;14.95;;;30.40;99.90;;;;;;4161591;28;20049;-69
2022/03/26 02:55:07;;;;;;;18.63;14.63;;;30.50;99.90;;;;;;4158068;28;20103;-68
2022/03/26 02:57:17;;;;;;;18.50;14.65;;;30.50;99.90;;;;;;4157113;28;20638;-68
2022/03/26 02:59:38;;;;;;;21.60;14.90;;;30.60;99.90;;;;;;4158330;28;20137;-68
2022/03/26 03:01:52;;;;;;;19.08;14.32;;;30.70;99.90;;;;;;4157397;28;20516;-68
2022/03/26 03:04:17;;;;;;;20.45;14.43;;;30.70;99.90;;;;;;4157428;28;20057;-69
2022/03/26 03:06:43;;;;;;;18.70;14.50;;;30.80;99.90;;;;;;4159829;28;20069;-68
2022/03/26 03:09:08;;;;;;;16.42;13.52;;;30.80;99.90;;;;;;4182390;28;20090;-68
2022/03/26 03:11:33;;;;;;;16.90;13.27;;;30.90;99.90;;;;;;4158932;28;20049;-68
2022/03/26 03:14:01;;;;;;;16.58;12.85;;;31.00;99.90;;;;;;4144495;28;20065;-68
2022/03/26 03:16:26;;;;;;;17.83;13.35;;;31.00;99.90;;;;;;4158381;28;20519;-68
2022/03/26 03:18:52;;;;;;;15.60;12.07;;;31.20;99.90;;;;;;4158026;28;20413;-68
2022/03/26 03:21:21;;;;;;;15.00;12.27;;;31.10;99.90;;;;;;4187100;28;20052;-68
2022/03/26 03:23:45;;;;;;;19.33;13.88;;;31.20;99.90;;;;;;4161867;28;20151;-68
2022/03/26 03:26:10;;;;;;;20.00;13.95;;;31.30;99.90;;;;;;4161114;28;20625;-68
2022/03/26 03:28:38;;;;;;;19.48;13.82;;;31.40;99.80;;;;;;4161927;28;20049;-68
2022/03/26 03:31:02;;;;;;;18.02;14.05;;;31.40;99.10;;;;;;4161228;28;20171;-68
2022/03/26 03:33:27;;;;;;;20.02;14.82;;;31.40;99.40;;;;;;4161684;28;20574;-68
2022/03/26 03:35:56;;;;;;;20.77;13.75;;;31.40;98.90;;;;;;4161703;28;20099;-68
2022/03/26 03:38:20;;;;;;;20.35;14.05;;;31.30;98.90;;;;;;4161455;28;20083;-69
2022/03/26 03:40:45;;;;;;;18.08;13.65;;;31.40;98.50;;;;;;4161554;28;20065;-68
2022/03/26 03:43:13;;;;;;;18.17;13.52;;;31.40;98.90;;;;;;4161366;28;20065;-68
2022/03/26 03:45:38;;;;;;;19.50;13.35;;;31.50;98.70;;;;;;4160339;28;20767;-68
2022/03/26 03:48:02;;;;;;;16.25;11.85;;;31.60;98.60;;;;;;4160745;28;20056;-68
2022/03/26 03:50:29;;;;;;;20.20;12.73;;;31.70;98.30;;;;;;4127896;28;20132;-68
2022/03/26 03:52:52;;;;;;;17.42;13.20;;;31.70;98.30;;;;;;4182724;28;20499;-68
2022/03/26 03:55:15;;;;;;;16.67;12.38;;;31.80;97.80;;;;;;4159869;28;20072;-68
2022/03/26 03:57:43;;;;;;;19.60;13.00;;;31.80;97.80;;;;;;4131071;28;20061;-68
2022/03/26 04:00:08;;;;;;;13.93;12.43;;;31.60;98.30;;;;;;4159740;28;20045;-68
2022/03/26 04:02:35;;;;;;;16.30;13.10;;;31.40;98.70;;;;;;4160401;28;20118;-69
2022/03/26 04:05:04;;;;;;;17.15;13.32;;;31.10;99.20;;;;;;4161323;28;20487;-68
2022/03/26 04:07:28;;;;;;;15.15;12.05;;;31.20;99.00;;;;;;4161035;28;20102;-68
2022/03/26 04:09:50;;;;;;;18.10;12.75;;;31.40;98.70;;;;;;4162291;28;20049;-68
2022/03/26 04:12:04;;;;;;;17.42;12.57;;;31.50;98.30;;;;;;4113910;28;20047;-68
2022/03/26 04:14:30;;;;;;;15.65;12.13;;;31.60;98.10;;;;;;4160041;28;20148;-68
2022/03/26 04:16:54;;;;;;;12.85;11.30;;;31.70;97.80;;;;;;4147737;28;20064;-68
2022/03/26 04:19:22;;;;;;;18.27;11.95;;;31.80;97.40;;;;;;4162135;28;20708;-68
2022/03/26 04:21:47;;;;;;;15.77;12.35;;;31.80;97.70;;;;;;4160952;28;20049;-68
2022/03/26 04:24:02;;;;;;;18.42;12.20;;;31.90;97.70;;;;;;4159567;28;20044;-68
2022/03/26 04:26:30;;;;;;;17.80;11.40;;;31.80;97.10;;;;;;4159133;28;20379;-69
2022/03/26 04:28:54;;;;;;;15.13;11.73;;;31.90;96.90;;;;;;4160592;28;20045;-68
2022/03/26 04:31:09;;;;;;;15.27;11.80;;;31.90;96.90;;;;;;4161960;28;20124;-69
2022/03/26 04:33:38;;;;;;;16.48;11.93;;;32.10;96.50;;;;;;4168002;28;20108;-69
2022/03/26 04:36:02;;;;;;;12.77;10.75;;;32.10;96.30;;;;;;4144503;28;20124;-69
2022/03/26 04:38:17;;;;;;;16.60;10.77;;;32.20;96.50;;;;;;4156511;28;20470;-68
2022/03/26 04:40:43;;;;;;;15.85;11.10;;;32.30;96.20;;;;;;4160958;28;20404;-69
2022/03/26 04:43:07;;;;;;;12.77;10.77;;;32.30;95.90;;;;;;4160773;28;20052;-69
2022/03/26 04:45:32;;;;;;;13.43;10.68;;;32.30;95.80;;;;;;4160734;28;20053;-69
2022/03/26 04:47:51;;;;;;;13.32;11.25;;;32.30;95.90;;;;;;4161246;28;20039;-70
2022/03/26 04:50:15;;;;;;;12.45;10.63;;;32.30;95.70;;;;;;4163474;28;20050;-69
2022/03/26 04:52:40;;;;;;;14.15;10.82;;;32.30;95.50;;;;;;4160096;28;20054;-69
2022/03/26 04:54:57;;;;;;;15.52;10.88;;;32.30;95.90;;;;;;4161205;28;20050;-69
2022/03/26 04:57:06;;;;;;;13.20;10.55;;;32.40;95.70;;;;;;4182936;28;20040;-69
2022/03/26 04:59:31;;;;;;;14.02;10.82;;;32.40;95.60;;;;;;4124099;28;20092;-69
2022/03/26 05:01:51;;;;;;;14.57;10.25;;;32.50;96.20;;;;;;4153957;28;20045;-69
2022/03/26 05:04:16;;;;;;;14.05;10.18;;;32.40;95.60;;;;;;4156175;28;20487;-69
2022/03/26 05:06:38;;;;;;;12.63;9.98;;;32.50;95.40;;;;;;4157766;28;20111;-69
2022/03/26 05:08:57;;;;;;;13.70;10.38;;;32.60;95.60;;;;;;4160221;28;20176;-69
2022/03/26 05:11:10;;;;;;;13.25;10.70;;;32.60;95.50;;;;;;4162020;28;20088;-70
2022/03/26 05:13:35;;;;;;;13.57;10.23;;;32.70;95.40;;;;;;4155406;28;20048;-68
2022/03/26 05:15:51;;;;;;;14.25;10.45;;;32.80;95.50;;;;;;4162926;28;20444;-69
2022/03/26 05:18:21;;;;;;;15.70;10.57;;;32.80;95.40;;;;;;4160853;28;20057;-69
2022/03/26 05:20:47;;;;;;;14.63;10.35;;;32.70;94.70;;;;;;4161876;28;20068;-70
2022/03/26 05:23:14;;;;;;;15.15;10.52;;;32.60;95.10;;;;;;4160425;28;20080;-69
2022/03/26 05:25:31;;;;;;;13.40;11.02;;;32.60;94.80;;;;;;4164355;28;20048;-69
2022/03/26 05:27:56;;;;;;;17.13;10.55;;;32.60;95.60;;;;;;4163139;28;20431;-69
2022/03/26 05:30:14;;;;;;;15.88;10.57;;;32.70;95.10;;;;;;4142548;28;20041;-69
2022/03/26 05:32:30;;;;;;;13.02;10.77;;;32.80;94.80;;;;;;4163025;28;20076;-69
2022/03/26 05:34:53;;;;;;;13.45;9.85;;;32.90;94.80;;;;;;4164620;28;20735;-69
2022/03/26 05:37:21;;;;;;;12.52;10.93;;;32.80;95.20;;;;;;4163302;28;20409;-69
2022/03/26 05:39:47;;;;;;;13.05;10.30;;;32.90;94.80;;;;;;4175479;28;20041;-70
2022/03/26 05:42:12;;;;;;;13.43;10.00;;;32.80;94.90;;;;;;4180155;28;20171;-70
2022/03/26 05:44:40;;;;;;;13.73;10.80;;;32.80;94.60;;;;;;4135698;28;20763;-69
2022/03/26 05:46:51;;;;;;;12.27;10.52;;;32.70;95.00;;;;;;4164545;28;20625;-69
2022/03/26 05:49:16;;;;;;;20.60;11.18;;;32.70;94.90;;;;;;4163907;28;21579;-69
2022/03/26 05:51:40;;;;;;;15.70;11.48;;;32.60;94.70;;;;;;4162443;28;20049;-70
2022/03/26 05:54:05;;;;;;;12.70;10.30;;;32.50;95.60;;;;;;4182399;28;20041;-69
2022/03/26 05:56:30;;;;;;;17.50;10.60;;;32.40;95.60;;;;;;4158683;28;20065;-69
2022/03/26 05:58:58;;;;;;;15.45;10.57;;;32.30;96.00;;;;;;4163620;28;20053;-70
2022/03/26 06:01:11;;;;;;;11.95;10.02;;;32.30;95.60;;;;;;4164577;28;20041;-69
2022/03/26 06:03:36;;;;;;;11.77;9.82;;;32.30;95.90;;;;;;4163466;28;20083;-69
2022/03/26 06:06:04;;;;;;;12.38;10.07;;;32.30;95.50;;;;;;4135206;28;20050;-69
2022/03/26 06:08:28;;;;;;;12.68;10.20;;;32.50;95.20;;;;;;4163302;28;20045;-69
2022/03/26 06:10:46;;;;;;;13.85;10.07;;;32.60;94.90;;;;;;4164571;28;20061;-68
2022/03/26 06:13:08;;;;;;;12.98;9.80;;;32.70;94.80;;;;;;4164176;28;20049;-70
2022/03/26 06:15:19;;;;;;;11.07;9.13;;;32.80;94.00;;;;;;4163523;28;20048;-69
2022/03/26 06:18:04;;;;;;;12.95;9.75;;;32.90;94.50;;;;;;4162763;28;20691;-70
2022/03/26 06:20:30;;;;;;;10.85;9.23;;;33.00;93.50;;;;;;4162993;28;20053;-69
2022/03/26 06:22:56;;;;;;;12.85;9.15;;;33.00;93.70;;;;;;4149948;28;20103;-70
2022/03/26 06:25:26;;;;;;;12.18;9.57;;;33.10;93.60;;;;;;4149457;28;20061;-70
2022/03/26 06:27:54;;;;;;;12.07;9.00;;;33.20;93.90;;;;;;4163547;28;20536;-68
2022/03/26 06:30:11;;;;;;;13.32;8.55;;;33.20;93.70;;;;;;4163709;28;20048;-69
2022/03/26 06:32:36;;;;;;;13.18;9.15;;;33.30;93.00;;;;;;4163052;28;20651;-69
2022/03/26 06:34:53;;;;;;;12.90;9.43;;;33.00;92.90;;;;;;4163880;28;20049;-69
2022/03/26 06:37:20;;;;;;;9.85;8.85;;;33.00;92.80;;;;;;4180526;28;20057;-69
2022/03/26 06:39:36;;;;;;;11.82;9.45;;;33.10;92.80;;;;;;4166750;28;20060;-67
2022/03/26 06:42:00;;;;;;;9.85;8.80;;;33.10;92.10;;;;;;4158093;28;20056;-69
2022/03/26 06:44:24;;;;;;;10.07;9.07;;;33.10;92.40;;;;;;4168953;28;20049;-69
2022/03/26 06:46:49;;;;;;;11.60;8.98;;;33.30;92.50;;;;;;4158676;28;20682;-69
2022/03/26 06:49:15;;;;;;;15.88;9.02;;;33.30;92.60;;;;;;4158732;28;20233;-69
2022/03/26 06:51:40;;;;;;;10.98;9.05;;;33.30;92.30;;;;;;4143759;28;20103;-66
2022/03/26 06:54:02;;;;;;;12.10;9.30;;;33.30;92.20;;;;;;4130585;28;20050;-68
2022/03/26 06:56:30;;;;;;;12.35;8.85;;;33.30;91.90;;;;;;4165162;28;20049;-68
2022/03/26 06:58:55;;;;;;;10.43;8.77;;;33.30;92.30;;;;;;4144215;28;20100;-68
2022/03/26 07:01:20;;;;;;;11.68;9.13;;;33.40;92.60;;;;;;4143723;28;20073;-68
2022/03/26 07:03:54;;;;;;;11.40;9.48;;;33.30;92.70;;;;;;4147030;28;20547;-70
2022/03/26 07:06:19;;;;;;;11.88;10.02;;;33.40;91.90;;;;;;4158975;28;20154;-68
2022/03/26 07:08:43;;;;;;;13.80;10.15;;;33.40;91.90;;;;;;4148603;28;20107;-68
2022/03/26 07:10:59;;;;;;;12.48;9.02;;;33.50;92.00;;;;;;4164483;28;20057;-68
2022/03/26 07:13:21;;;;;;;15.30;9.25;;;33.60;92.40;;;;;;4158859;28;20052;-69
2022/03/26 07:15:45;;;;;;;10.32;9.13;;;33.60;92.00;;;;;;4157938;28;20046;-68
2022/03/26 07:18:15;;;;;;;11.48;8.50;;;33.50;92.10;;;;;;4144991;28;20064;-69
2022/03/26 07:20:40;;;;;;;11.88;8.85;;;33.50;92.10;;;;;;4153754;28;20044;-68
2022/03/26 07:22:57;;;;;;;11.95;8.90;;;33.60;92.10;;;;;;4159754;28;20045;-69
2022/03/26 07:25:09;;;;;;;11.23;8.80;;;33.50;92.20;;;;;;4162231;28;20045;-70
2022/03/26 07:27:34;;;;;;;13.13;8.82;;;33.50;92.50;;;;;;4162219;28;20081;-69
2022/03/26 07:29:56;;;;;;;11.77;9.68;;;33.50;91.60;;;;;;4128978;28;20095;-69
2022/03/26 07:32:18;;;;;;;11.50;8.93;;;33.50;91.70;;;;;;4160531;28;20095;-69
2022/03/26 07:34:42;;;;;;;10.98;9.35;;;33.50;91.50;;;;;;4147933;28;20045;-69
2022/03/26 07:37:07;;;;;;;10.00;8.88;;;33.60;91.00;;;;;;4172347;28;20120;-69
2022/03/26 07:39:31;;;;;;;12.60;9.50;;;33.70;91.50;;;;;;4148455;28;20060;-68
2022/03/26 07:41:56;;;;;;;11.82;8.85;;;33.60;91.70;;;;;;4159354;28;20438;-70
2022/03/26 07:44:20;;;;;;;13.57;9.00;;;33.50;91.70;;;;;;4165960;28;20152;-68
2022/03/26 07:46:45;;;;;;;11.07;8.88;;;33.50;91.50;;;;;;4146909;28;20046;-69
2022/03/26 07:49:03;;;;;;;12.90;8.65;;;33.50;91.80;;;;;;4158289;28;20041;-68
2022/03/26 07:51:27;;;;;;;10.38;8.95;;;33.50;91.90;;;;;;4147387;28;20057;-69
2022/03/26 07:53:55;;;;;;;9.52;8.52;;;33.50;91.70;;;;;;4148374;28;20413;-70
2022/03/26 07:56:21;;;;;;;12.05;9.93;;;33.40;91.80;;;;;;4124686;28;20046;-68
2022/03/26 07:58:49;;;;;;;13.00;8.95;;;33.50;91.60;;;;;;4123550;28;20536;-67
2022/03/26 08:01:17;;;;;;;11.07;8.80;;;33.50;91.50;;;;;;4109594;28;20103;-68
2022/03/26 08:03:42;;;;;;;14.77;8.85;;;33.40;91.40;;;;;;4124064;28;20043;-67
2022/03/26 08:05:56;;;;;;;10.55;9.45;;;33.50;91.70;;;;;;4135349;28;20161;-67
2022/03/26 08:08:29;;;;;;;10.68;9.05;;;33.40;91.60;;;;;;4114642;28;20047;-67
2022/03/26 08:10:53;;;;;;;10.80;8.85;;;33.30;91.40;;;;;;4123072;28;20217;-68
2022/03/26 08:13:18;;;;;;;9.63;8.63;;;33.10;91.10;;;;;;4122279;28;20051;-69
2022/03/26 08:15:48;;;;;;;10.98;8.15;;;33.00;91.10;;;;;;4123089;28;20050;-69
2022/03/26 08:18:14;;;;;;;9.63;8.63;;;32.90;91.20;;;;;;4115178;28;20537;-68
2022/03/26 08:20:31;;;;;;;13.68;9.55;;;32.90;91.40;;;;;;4132326;28;20096;-68
2022/03/26 08:23:00;;;;;;;12.35;9.35;;;32.80;91.90;;;;;;4115208;28;20096;-68
2022/03/26 08:26:19;;;;;;;10.75;9.48;;;32.80;92.20;;;;;;4136070;28;20755;-68
2022/03/26 08:27:54;;;;;;;12.18;8.98;;;32.70;91.80;;;;;;4157746;28;20037;-68
2022/03/26 08:30:20;;;;;;;15.65;9.88;;;32.60;91.40;;;;;;4151356;28;20127;-68
2022/03/26 08:32:44;;;;;;;12.45;8.30;;;32.60;91.50;;;;;;4160173;28;20053;-69
2022/03/26 08:34:56;;;;;;;13.02;9.30;;;32.60;91.00;;;;;;4160401;28;20565;-69
2022/03/26 08:37:23;;;;;;;12.80;9.10;;;32.60;91.50;;;;;;4159715;28;20467;-68
2022/03/26 08:39:48;;;;;;;11.90;9.60;;;32.60;91.50;;;;;;4160096;28;20049;-70
2022/03/26 08:42:13;;;;;;;10.95;9.05;;;32.60;91.70;;;;;;4170909;28;20068;-69
2022/03/26 08:44:37;;;;;;;13.70;8.93;;;32.60;91.80;;;;;;4161182;28;20049;-69
2022/03/26 08:46:53;;;;;;;12.90;9.63;;;32.60;92.10;;;;;;4161917;28;20043;-69
2022/03/26 08:49:20;;;;;;;12.32;9.95;;;32.50;92.00;;;;;;4160642;28;20077;-70
2022/03/26 08:51:45;;;;;;;12.77;9.73;;;32.50;92.10;;;;;;4161239;28;20060;-70
2022/03/26 08:53:55;;;;;;;12.77;9.55;;;32.40;91.90;;;;;;4160908;28;20044;-68
2022/03/26 08:56:20;;;;;;;11.40;9.13;;;32.40;91.90;;;;;;4160983;28;20514;-69
2022/03/26 08:58:46;;;;;;;12.95;9.60;;;32.40;92.10;;;;;;4145174;28;20058;-69
2022/03/26 09:01:11;;;;;;;13.48;8.43;;;32.40;92.30;;;;;;4153671;28;20053;-70
2022/03/26 09:03:22;;;;;;;11.60;9.77;;;32.30;92.30;;;;;;4156358;28;20065;-68
2022/03/26 09:05:53;;;;;;;12.20;9.50;;;32.30;92.80;;;;;;4159724;28;20061;-70
2022/03/26 09:08:04;;;;;;;14.60;9.32;;;32.40;92.80;;;;;;4159665;28;20116;-69
2022/03/26 09:10:18;;;;;;;13.73;9.70;;;32.30;92.70;;;;;;4160721;28;20064;-70
2022/03/26 09:12:44;;;;;;;17.17;11.05;;;32.30;92.30;;;;;;4162037;28;20501;-69
2022/03/26 09:15:08;;;;;;;15.55;11.73;;;32.30;92.10;;;;;;4160295;28;20077;-70
2022/03/26 09:17:33;;;;;;;13.73;10.75;;;32.40;92.00;;;;;;4160784;28;20046;-69
2022/03/26 09:19:43;;;;;;;14.10;10.95;;;32.40;92.10;;;;;;4160983;28;20053;-70
2022/03/26 09:22:08;;;;;;;12.95;9.85;;;32.40;91.90;;;;;;4161133;28;20049;-70
2022/03/26 09:24:35;;;;;;;13.07;9.48;;;32.40;92.10;;;;;;4161102;28;20124;-69
2022/03/26 09:26:52;;;;;;;13.57;9.38;;;32.40;91.50;;;;;;4161348;28;20101;-69
2022/03/26 09:29:02;;;;;;;11.55;9.77;;;32.40;91.80;;;;;;4161821;28;20492;-70
2022/03/26 09:31:28;;;;;;;17.30;10.60;;;32.40;91.80;;;;;;4118640;28;20498;-70
2022/03/26 09:33:53;;;;;;;12.48;9.88;;;32.40;91.90;;;;;;4161929;28;20048;-69
2022/03/26 09:36:15;;;;;;;16.92;10.07;;;32.40;91.50;;;;;;4160596;28;20409;-72
2022/03/26 09:38:42;;;;;;;13.95;9.38;;;32.40;91.50;;;;;;4146520;28;20050;-69
2022/03/26 09:41:09;;;;;;;15.20;10.20;;;32.40;91.70;;;;;;4147162;28;20050;-69
2022/03/26 09:43:33;;;;;;;13.95;9.20;;;32.40;92.10;;;;;;4146978;28;20189;-69
2022/03/26 09:45:53;;;;;;;10.32;9.27;;;32.40;91.90;;;;;;4127876;28;20497;-69
2022/03/26 09:48:16;;;;;;;14.20;10.45;;;32.30;91.80;;;;;;4141473;28;20050;-68
2022/03/26 09:50:41;;;;;;;12.88;10.40;;;32.30;92.00;;;;;;4143394;28;20448;-68
2022/03/26 09:53:11;;;;;;;13.63;10.98;;;32.30;91.90;;;;;;4115612;28;20083;-69
2022/03/26 09:55:38;;;;;;;11.82;10.25;;;32.30;92.10;;;;;;4116635;28;20055;-70
2022/03/26 09:57:49;;;;;;;10.73;8.73;;;32.30;92.80;;;;;;4134197;28;20158;-71
2022/03/26 09:59:58;;;;;;;13.93;9.07;;;32.10;93.10;;;;;;4142488;28;20080;-70
2022/03/26 10:02:16;;;;;;;18.30;8.75;;;31.90;93.60;;;;;;4144922;28;20065;-70
2022/03/26 10:04:41;;;;;;;13.75;9.07;;;31.70;94.40;;;;;;4146058;28;20065;-70
2022/03/26 10:07:05;;;;;;;11.13;8.32;;;31.50;94.80;;;;;;4118236;28;20116;-70
2022/03/26 10:09:40;;;;;;;12.30;8.38;;;31.20;94.90;;;;;;4124438;28;20059;-70
2022/03/26 10:12:01;;;;;;;11.57;8.25;;;31.10;95.00;;;;;;4116645;28;20046;-71
2022/03/26 10:14:40;;;;;;;17.67;9.32;;;31.00;95.10;;;;;;4129713;28;20049;-68
2022/03/26 10:17:17;;;;;;;14.80;8.13;;;31.00;95.20;;;;;;4125721;28;20160;-70
2022/03/26 10:19:52;;;;;;;13.52;8.30;;;31.00;95.00;;;;;;4134563;28;20053;-69
2022/03/26 10:22:29;;;;;;;15.18;8.48;;;30.90;95.00;;;;;;4155436;28;20053;-70
2022/03/26 10:24:56;;;;;;;13.73;8.45;;;30.90;95.10;;;;;;4155941;28;20049;-70
2022/03/26 10:27:22;;;;;;;13.68;8.50;;;30.90;95.10;;;;;;4162853;28;20037;-70
2022/03/26 10:29:54;;;;;;;13.52;7.60;;;30.80;94.90;;;;;;4149567;28;20317;-70
2022/03/26 10:35:04;;;;;;;11.25;7.18;;;30.70;94.60;;;;;;4164043;28;20042;-69
2022/03/26 10:37:41;;;;;;;9.85;6.70;;;30.60;94.80;;;;;;4162835;28;20065;-69
2022/03/26 10:40:35;;;;;;;11.70;6.75;;;30.50;94.80;;;;;;4159166;28;20155;-69
2022/03/26 10:43:05;;;;;;;10.35;6.55;;;30.30;95.60;;;;;;4147787;28;20057;-70
2022/03/26 10:45:31;;;;;;;8.05;5.75;;;30.10;95.80;;;;;;4176945;28;20040;-71
2022/03/26 10:47:56;;;;;;;9.10;5.60;;;30.00;95.90;;;;;;4148928;28;20508;-70
2022/03/26 10:50:26;;;;;;;8.10;5.65;;;30.00;95.90;;;;;;4162986;28;20722;-70
2022/03/26 10:52:54;;;;;;;11.88;6.25;;;30.10;96.30;;;;;;4161951;28;20088;-71
2022/03/26 10:55:18;;;;;;;9.57;6.40;;;30.00;96.60;;;;;;4163064;28;20057;-70
2022/03/26 10:57:46;;;;;;;10.38;5.07;;;29.90;96.90;;;;;;4161135;28;20057;-68
2022/03/26 11:00:13;;;;;;;12.30;5.20;;;29.80;96.70;;;;;;4162075;28;20064;-68
2022/03/26 11:02:37;;;;;;;9.43;5.72;;;29.60;97.30;;;;;;4162061;28;20060;-69
2022/03/26 11:05:06;;;;;;;9.98;6.10;;;29.60;97.50;;;;;;4161968;28;20160;-70
2022/03/26 11:07:32;;;;;;;9.82;5.55;;;29.70;97.40;;;;;;4162233;28;20062;-71
2022/03/26 11:09:56;;;;;;;13.02;5.68;;;29.80;97.90;;;;;;4148176;28;20042;-71
2022/03/26 11:12:21;;;;;;;12.02;6.00;;;29.70;98.00;;;;;;4160985;28;20057;-71
2022/03/26 11:14:40;;;;;;;10.57;5.60;;;29.80;98.30;;;;;;4162552;28;20045;-72
2022/03/26 11:17:25;;;;;;;10.77;5.75;;;29.80;98.50;;;;;;4161850;28;20049;-72
2022/03/26 11:20:02;;;;;;;10.77;6.07;;;29.80;98.90;;;;;;4162232;28;20057;-69
2022/03/26 11:22:50;;;;;;;14.80;6.22;;;29.80;99.50;;;;;;4159353;28;20050;-71
2022/03/26 11:25:34;;;;;;;19.83;7.88;;;29.70;99.90;;;;;;4162201;28;20057;-71
2022/03/26 11:28:15;;;;;;;17.50;7.97;;;29.70;99.90;;;;;;4147603;28;20046;-70
2022/03/26 11:30:39;;;;;;;17.17;8.05;;;29.60;99.90;;;;;;4162567;28;20034;-71
2022/03/26 11:33:11;;;;;;;14.93;7.10;;;29.60;99.90;;;;;;4161243;28;20053;-72
2022/03/26 11:35:27;;;;;;;14.80;6.88;;;29.60;99.90;;;;;;4161952;28;20040;-73
2022/03/26 11:37:56;;;;;;;15.98;8.57;;;29.50;99.90;;;;;;4114045;28;20055;-72
2022/03/26 11:40:45;;;;;;;11.68;7.18;;;29.60;99.90;;;;;;4127421;28;20105;-72
2022/03/26 11:42:59;;;;;;;11.95;6.38;;;29.50;99.90;;;;;;4111093;28;20138;-74
2022/03/26 11:52:57;;;;;;;11.82;7.90;;;29.40;99.90;;;;;;4113072;28;20042;-71
2022/03/26 11:55:25;;;;;;;9.77;6.82;;;29.30;99.90;;;;;;4096039;28;20055;-70
2022/03/26 11:58:20;;;;;;;13.27;6.90;;;29.40;99.90;;;;;;4096636;28;20046;-71
2022/03/26 12:00:59;;;;;;;11.95;7.03;;;29.40;99.90;;;;;;4096902;28;20184;-73
2022/03/26 12:03:13;;;;;;;11.82;6.97;;;29.40;99.90;;;;;;4108800;28;20058;-73
2022/03/26 12:08:17;;;;;;;10.25;7.22;;;29.40;99.90;;;;;;4085422;28;20154;-76
2022/03/26 12:10:42;;;;;;;11.45;7.68;;;29.40;99.90;;;;;;4097425;28;20043;-75
2022/03/26 12:13:08;;;;;;;10.43;7.40;;;29.30;99.90;;;;;;4083635;28;20051;-75
2022/03/26 12:15:35;;;;;;;12.05;7.53;;;29.30;99.90;;;;;;4076603;28;20043;-75